Current Weather

Brooks Fld

Marshall, Michigan (KRMY)

Report from: Wednesday, May 29, 2024 8:55 PM EDT
Current time: Wednesday, May 29, 2024 9:11 PM EDT

Nearby weather – Weather history – Daily summaries
Weather forecast

Temperature14.5°C (58.1°F)
Dew point10.3°C (50.5°F)
Winds Calm
Visibility10 mi. (16.1 km)
Clouds Sky clear
Altimeter30.12 in.Hg (1020 mB)
Relative humidity76 %
Density altitude-109 ft. (-33 m)
Remarks Fully automated report
Automated weather observing station with precipitation discriminator
Flight conditions Visual Meteorological Conditions
Raw dataKRMY 300055Z AUTO 00000KT 10SM CLR 15/10 A3012 RMK AO2 T01450103
An error has occurred. This application may no longer respond until reloaded. Reload 🗙